KENW METAR and TAF | Updated Today

KENW METAR

Kenosha Regional Airport

Observation time: 61 min. ago

KENW 070653Z AUTO 33008KT 10SM CLR M12/M19 A3026 RMK AO2 SLP259 T11171194 $

Need help? Read our tutorial on how to read METARs or read the parsed version below.

Kenosha Regional Airport (KENW) METAR

  • Weather conditions on Tue, 07 Dec 2021 06:53:00 +0000 (61 min. ago):
  • Present conditions: Dry
  • Clouds: Clear skies
  • Visibility: 16093 meters
  • Wind: 330 degrees at 8 knots
  • Temperature: -12 celsius
  • Dew point: -19 celsius
  • Pressure: 30.26 inHg
  • Remarks: AO2 SLP259 T11171194 $


Useful to know...

KENW TAF

Kenosha Regional Airport

KENW 070520Z 0706/0806 30010KT P6SM SKC FM071500 26006KT P6SM BKN100 FM072100 21005KT P6SM OVC050
Observation time: 2:34 hr. ago
Need help? Read our tutorial on how to read TAFs or read the parsed version below.

Parsed version of TAF for Kenosha Regional Airport (KENW)

  • From 07 December at 06:00 UTC, to day 08 of the month at 06:00 UTC
  • Clouds: No significant changes expected
  • Wind: 300 degrees at 10
  • From day 7 of the month at 15:00 UTC
  • Clouds: Broken sky at 3048 meters
  • Wind: 260 degrees at 6
  • From day 7 of the month at 21:00 UTC
  • Clouds: Overcast sky at 1524 meters
  • Wind: 210 degrees at 5